sensor_id;sensor_type;location;lat;lon;timestamp;P1;durP1;ratioP1;P2;durP2;ratioP2
52126;SDS011;38120;53.176;6.614;2023-05-07T00:00:46;26.23;;;18.83;;
52126;SDS011;38120;53.176;6.614;2023-05-07T00:03:12;28.63;;;18.05;;
52126;SDS011;38120;53.176;6.614;2023-05-07T00:05:38;26.80;;;18.38;;
52126;SDS011;38120;53.176;6.614;2023-05-07T00:08:09;29.08;;;19.30;;
52126;SDS011;38120;53.176;6.614;2023-05-07T00:10:35;31.50;;;19.67;;
52126;SDS011;38120;53.176;6.614;2023-05-07T00:13:01;26.37;;;19.53;;
52126;SDS011;38120;53.176;6.614;2023-05-07T00:15:26;24.85;;;17.42;;
52126;SDS011;38120;53.176;6.614;2023-05-07T00:17:52;25.47;;;18.00;;
52126;SDS011;38120;53.176;6.614;2023-05-07T00:20:18;27.88;;;18.27;;
52126;SDS011;38120;53.176;6.614;2023-05-07T00:22:44;33.22;;;19.15;;
52126;SDS011;38120;53.176;6.614;2023-05-07T00:25:19;26.27;;;18.60;;
52126;SDS011;38120;53.176;6.614;2023-05-07T00:27:45;29.20;;;20.83;;
52126;SDS011;38120;53.176;6.614;2023-05-07T00:30:11;27.10;;;18.95;;
52126;SDS011;38120;53.176;6.614;2023-05-07T00:32:37;29.20;;;19.20;;
52126;SDS011;38120;53.176;6.614;2023-05-07T00:35:04;30.23;;;20.58;;
52126;SDS011;38120;53.176;6.614;2023-05-07T00:37:30;24.90;;;19.20;;
52126;SDS011;38120;53.176;6.614;2023-05-07T00:39:56;33.83;;;20.88;;
52126;SDS011;38120;53.176;6.614;2023-05-07T00:42:22;28.35;;;18.90;;
52126;SDS011;38120;53.176;6.614;2023-05-07T00:44:47;32.97;;;21.67;;
52126;SDS011;38120;53.176;6.614;2023-05-07T00:47:13;29.73;;;19.67;;
52126;SDS011;38120;53.176;6.614;2023-05-07T00:49:43;30.27;;;21.23;;
52126;SDS011;38120;53.176;6.614;2023-05-07T00:52:14;28.85;;;19.95;;
52126;SDS011;38120;53.176;6.614;2023-05-07T00:54:41;33.03;;;22.77;;
52126;SDS011;38120;53.176;6.614;2023-05-07T00:57:07;28.23;;;19.92;;
52126;SDS011;38120;53.176;6.614;2023-05-07T00:59:34;33.35;;;22.35;;
52126;SDS011;38120;53.176;6.614;2023-05-07T01:02:01;32.10;;;20.60;;
52126;SDS011;38120;53.176;6.614;2023-05-07T01:04:26;27.17;;;20.57;;
52126;SDS011;38120;53.176;6.614;2023-05-07T01:06:52;33.70;;;21.00;;
52126;SDS011;38120;53.176;6.614;2023-05-07T01:09:21;31.13;;;21.02;;
52126;SDS011;38120;53.176;6.614;2023-05-07T01:11:48;30.77;;;22.75;;
52126;SDS011;38120;53.176;6.614;2023-05-07T01:14:15;32.33;;;23.10;;
52126;SDS011;38120;53.176;6.614;2023-05-07T01:16:42;29.98;;;21.50;;
52126;SDS011;38120;53.176;6.614;2023-05-07T01:19:08;29.90;;;21.45;;
52126;SDS011;38120;53.176;6.614;2023-05-07T01:21:36;31.90;;;23.13;;
52126;SDS011;38120;53.176;6.614;2023-05-07T01:24:04;31.38;;;21.52;;
52126;SDS011;38120;53.176;6.614;2023-05-07T01:26:30;30.45;;;22.40;;
52126;SDS011;38120;53.176;6.614;2023-05-07T01:28:56;35.10;;;21.83;;
52126;SDS011;38120;53.176;6.614;2023-05-07T01:31:21;29.10;;;21.03;;
52126;SDS011;38120;53.176;6.614;2023-05-07T01:33:49;30.92;;;22.20;;
52126;SDS011;38120;53.176;6.614;2023-05-07T01:36:17;33.33;;;21.17;;
52126;SDS011;38120;53.176;6.614;2023-05-07T01:38:43;35.75;;;23.98;;
52126;SDS011;38120;53.176;6.614;2023-05-07T01:41:11;36.05;;;24.45;;
52126;SDS011;38120;53.176;6.614;2023-05-07T01:43:38;36.55;;;23.60;;
52126;SDS011;38120;53.176;6.614;2023-05-07T01:46:06;36.33;;;22.95;;
52126;SDS011;38120;53.176;6.614;2023-05-07T01:48:35;36.55;;;23.75;;
52126;SDS011;38120;53.176;6.614;2023-05-07T01:51:01;33.22;;;23.70;;
52126;SDS011;38120;53.176;6.614;2023-05-07T01:53:27;33.25;;;23.25;;
52126;SDS011;38120;53.176;6.614;2023-05-07T01:55:53;32.88;;;20.83;;
52126;SDS011;38120;53.176;6.614;2023-05-07T01:58:19;34.28;;;23.70;;
52126;SDS011;38120;53.176;6.614;2023-05-07T02:00:45;31.65;;;22.55;;
52126;SDS011;38120;53.176;6.614;2023-05-07T02:03:11;36.42;;;23.58;;
52126;SDS011;38120;53.176;6.614;2023-05-07T02:05:36;33.33;;;22.30;;
52126;SDS011;38120;53.176;6.614;2023-05-07T02:08:02;39.87;;;23.23;;
52126;SDS011;38120;53.176;6.614;2023-05-07T02:10:28;36.67;;;23.40;;
52126;SDS011;38120;53.176;6.614;2023-05-07T02:12:54;38.77;;;24.57;;
52126;SDS011;38120;53.176;6.614;2023-05-07T02:15:39;35.72;;;23.02;;
52126;SDS011;38120;53.176;6.614;2023-05-07T02:18:06;33.17;;;23.97;;
52126;SDS011;38120;53.176;6.614;2023-05-07T02:20:33;38.40;;;24.27;;
52126;SDS011;38120;53.176;6.614;2023-05-07T02:22:58;40.15;;;22.48;;
52126;SDS011;38120;53.176;6.614;2023-05-07T02:25:30;36.53;;;24.33;;
52126;SDS011;38120;53.176;6.614;2023-05-07T02:27:56;37.65;;;24.55;;
52126;SDS011;38120;53.176;6.614;2023-05-07T02:30:28;35.60;;;22.23;;
52126;SDS011;38120;53.176;6.614;2023-05-07T02:32:53;36.65;;;24.35;;
52126;SDS011;38120;53.176;6.614;2023-05-07T02:35:19;34.90;;;23.73;;
52126;SDS011;38120;53.176;6.614;2023-05-07T02:37:45;37.90;;;24.20;;
52126;SDS011;38120;53.176;6.614;2023-05-07T02:40:11;39.63;;;24.90;;
52126;SDS011;38120;53.176;6.614;2023-05-07T02:42:37;35.33;;;23.75;;
52126;SDS011;38120;53.176;6.614;2023-05-07T02:45:03;36.43;;;22.63;;
52126;SDS011;38120;53.176;6.614;2023-05-07T02:47:29;42.55;;;25.40;;
52126;SDS011;38120;53.176;6.614;2023-05-07T02:49:55;37.25;;;24.50;;
52126;SDS011;38120;53.176;6.614;2023-05-07T02:52:21;36.30;;;25.05;;
52126;SDS011;38120;53.176;6.614;2023-05-07T02:54:47;35.53;;;25.30;;
52126;SDS011;38120;53.176;6.614;2023-05-07T02:57:12;39.17;;;25.63;;
52126;SDS011;38120;53.176;6.614;2023-05-07T02:59:38;41.17;;;24.13;;
52126;SDS011;38120;53.176;6.614;2023-05-07T03:02:04;31.83;;;23.63;;
52126;SDS011;38120;53.176;6.614;2023-05-07T03:04:30;38.72;;;24.10;;
52126;SDS011;38120;53.176;6.614;2023-05-07T03:06:56;39.33;;;25.67;;
52126;SDS011;38120;53.176;6.614;2023-05-07T03:09:21;38.13;;;25.57;;
52126;SDS011;38120;53.176;6.614;2023-05-07T03:11:47;44.80;;;26.97;;
52126;SDS011;38120;53.176;6.614;2023-05-07T03:14:13;41.20;;;25.67;;
52126;SDS011;38120;53.176;6.614;2023-05-07T03:16:39;38.63;;;25.53;;
52126;SDS011;38120;53.176;6.614;2023-05-07T03:19:05;37.33;;;26.45;;
52126;SDS011;38120;53.176;6.614;2023-05-07T03:21:30;39.03;;;25.27;;
52126;SDS011;38120;53.176;6.614;2023-05-07T03:23:58;35.50;;;24.92;;
52126;SDS011;38120;53.176;6.614;2023-05-07T03:26:24;38.03;;;24.83;;
52126;SDS011;38120;53.176;6.614;2023-05-07T03:28:51;34.90;;;25.73;;
52126;SDS011;38120;53.176;6.614;2023-05-07T03:31:17;38.53;;;26.02;;
52126;SDS011;38120;53.176;6.614;2023-05-07T03:33:52;40.08;;;25.48;;
52126;SDS011;38120;53.176;6.614;2023-05-07T03:36:20;40.35;;;26.27;;
52126;SDS011;38120;53.176;6.614;2023-05-07T03:38:46;41.05;;;26.15;;
52126;SDS011;38120;53.176;6.614;2023-05-07T03:41:12;39.78;;;26.48;;
52126;SDS011;38120;53.176;6.614;2023-05-07T03:43:38;38.47;;;26.20;;
52126;SDS011;38120;53.176;6.614;2023-05-07T03:46:03;42.08;;;26.67;;
52126;SDS011;38120;53.176;6.614;2023-05-07T03:48:29;36.50;;;25.07;;
52126;SDS011;38120;53.176;6.614;2023-05-07T03:50:55;35.08;;;25.58;;
52126;SDS011;38120;53.176;6.614;2023-05-07T03:53:22;31.63;;;22.40;;
52126;SDS011;38120;53.176;6.614;2023-05-07T03:55:48;35.55;;;24.25;;
52126;SDS011;38120;53.176;6.614;2023-05-07T03:58:14;41.75;;;27.00;;
52126;SDS011;38120;53.176;6.614;2023-05-07T04:00:40;41.00;;;25.25;;
52126;SDS011;38120;53.176;6.614;2023-05-07T04:03:06;36.92;;;25.42;;
52126;SDS011;38120;53.176;6.614;2023-05-07T04:05:32;38.10;;;25.15;;
52126;SDS011;38120;53.176;6.614;2023-05-07T04:07:58;35.53;;;24.93;;
52126;SDS011;38120;53.176;6.614;2023-05-07T04:10:24;38.92;;;26.30;;
52126;SDS011;38120;53.176;6.614;2023-05-07T04:12:50;36.58;;;25.42;;
52126;SDS011;38120;53.176;6.614;2023-05-07T04:15:16;37.07;;;24.20;;
52126;SDS011;38120;53.176;6.614;2023-05-07T04:17:42;35.50;;;27.05;;
52126;SDS011;38120;53.176;6.614;2023-05-07T04:20:13;39.97;;;25.70;;
52126;SDS011;38120;53.176;6.614;2023-05-07T04:22:40;35.85;;;25.05;;
52126;SDS011;38120;53.176;6.614;2023-05-07T04:25:06;37.75;;;26.10;;
52126;SDS011;38120;53.176;6.614;2023-05-07T04:27:34;42.40;;;26.75;;
52126;SDS011;38120;53.176;6.614;2023-05-07T04:30:00;40.88;;;25.48;;
52126;SDS011;38120;53.176;6.614;2023-05-07T04:32:27;39.55;;;26.70;;
52126;SDS011;38120;53.176;6.614;2023-05-07T04:34:54;37.50;;;24.77;;
52126;SDS011;38120;53.176;6.614;2023-05-07T04:37:20;36.72;;;25.27;;
52126;SDS011;38120;53.176;6.614;2023-05-07T04:39:46;41.00;;;25.80;;
52126;SDS011;38120;53.176;6.614;2023-05-07T04:42:15;34.50;;;22.80;;
52126;SDS011;38120;53.176;6.614;2023-05-07T04:44:42;32.88;;;22.85;;
52126;SDS011;38120;53.176;6.614;2023-05-07T04:47:09;34.47;;;24.20;;
52126;SDS011;38120;53.176;6.614;2023-05-07T04:49:35;39.22;;;25.20;;
52126;SDS011;38120;53.176;6.614;2023-05-07T04:52:03;32.83;;;21.98;;
52126;SDS011;38120;53.176;6.614;2023-05-07T04:54:35;35.15;;;24.25;;
52126;SDS011;38120;53.176;6.614;2023-05-07T04:57:00;34.70;;;23.03;;
52126;SDS011;38120;53.176;6.614;2023-05-07T04:59:28;33.35;;;22.27;;
52126;SDS011;38120;53.176;6.614;2023-05-07T05:01:54;31.03;;;22.80;;
52126;SDS011;38120;53.176;6.614;2023-05-07T05:04:19;35.65;;;24.50;;
52126;SDS011;38120;53.176;6.614;2023-05-07T05:06:45;32.42;;;23.10;;
52126;SDS011;38120;53.176;6.614;2023-05-07T05:09:11;37.35;;;23.77;;
52126;SDS011;38120;53.176;6.614;2023-05-07T05:11:36;32.97;;;24.67;;
52126;SDS011;38120;53.176;6.614;2023-05-07T05:14:02;35.17;;;22.77;;
52126;SDS011;38120;53.176;6.614;2023-05-07T05:16:28;31.33;;;22.47;;
52126;SDS011;38120;53.176;6.614;2023-05-07T05:18:53;34.45;;;23.20;;
52126;SDS011;38120;53.176;6.614;2023-05-07T05:21:20;28.00;;;23.90;;
52126;SDS011;38120;53.176;6.614;2023-05-07T05:23:46;33.72;;;22.50;;
52126;SDS011;38120;53.176;6.614;2023-05-07T05:26:12;32.42;;;22.15;;
52126;SDS011;38120;53.176;6.614;2023-05-07T05:28:38;33.00;;;21.10;;
52126;SDS011;38120;53.176;6.614;2023-05-07T05:31:05;33.55;;;22.95;;
52126;SDS011;38120;53.176;6.614;2023-05-07T05:33:31;34.58;;;23.02;;
52126;SDS011;38120;53.176;6.614;2023-05-07T05:35:57;30.20;;;22.77;;
52126;SDS011;38120;53.176;6.614;2023-05-07T05:38:22;31.73;;;22.03;;
52126;SDS011;38120;53.176;6.614;2023-05-07T05:40:48;36.53;;;23.03;;
52126;SDS011;38120;53.176;6.614;2023-05-07T05:43:14;35.77;;;21.00;;
52126;SDS011;38120;53.176;6.614;2023-05-07T05:45:40;29.88;;;21.05;;
52126;SDS011;38120;53.176;6.614;2023-05-07T05:48:06;29.92;;;21.05;;
52126;SDS011;38120;53.176;6.614;2023-05-07T05:50:33;29.23;;;20.63;;
52126;SDS011;38120;53.176;6.614;2023-05-07T05:53:00;31.40;;;20.55;;
52126;SDS011;38120;53.176;6.614;2023-05-07T05:55:26;27.05;;;20.48;;
52126;SDS011;38120;53.176;6.614;2023-05-07T05:57:52;35.22;;;21.67;;
52126;SDS011;38120;53.176;6.614;2023-05-07T06:00:18;34.77;;;21.57;;
52126;SDS011;38120;53.176;6.614;2023-05-07T06:02:59;27.77;;;20.52;;
52126;SDS011;38120;53.176;6.614;2023-05-07T06:05:27;30.33;;;20.38;;
52126;SDS011;38120;53.176;6.614;2023-05-07T06:07:53;29.45;;;20.17;;
52126;SDS011;38120;53.176;6.614;2023-05-07T06:10:19;32.47;;;21.03;;
52126;SDS011;38120;53.176;6.614;2023-05-07T06:12:47;28.73;;;20.80;;
52126;SDS011;38120;53.176;6.614;2023-05-07T06:15:13;33.08;;;19.33;;
52126;SDS011;38120;53.176;6.614;2023-05-07T06:17:39;28.92;;;20.95;;
52126;SDS011;38120;53.176;6.614;2023-05-07T06:20:05;30.20;;;20.50;;
52126;SDS011;38120;53.176;6.614;2023-05-07T06:24:57;27.85;;;19.77;;
52126;SDS011;38120;53.176;6.614;2023-05-07T06:27:22;27.97;;;19.77;;
52126;SDS011;38120;53.176;6.614;2023-05-07T06:29:48;28.63;;;20.20;;
52126;SDS011;38120;53.176;6.614;2023-05-07T06:32:13;27.87;;;19.47;;
52126;SDS011;38120;53.176;6.614;2023-05-07T06:34:39;28.38;;;20.63;;
52126;SDS011;38120;53.176;6.614;2023-05-07T06:37:06;28.08;;;18.20;;
52126;SDS011;38120;53.176;6.614;2023-05-07T06:42:04;32.25;;;20.00;;
52126;SDS011;38120;53.176;6.614;2023-05-07T06:44:32;26.88;;;19.30;;
52126;SDS011;38120;53.176;6.614;2023-05-07T06:46:57;26.73;;;17.90;;
52126;SDS011;38120;53.176;6.614;2023-05-07T06:49:31;28.90;;;18.95;;
52126;SDS011;38120;53.176;6.614;2023-05-07T06:51:58;31.35;;;20.38;;
52126;SDS011;38120;53.176;6.614;2023-05-07T06:54:24;27.50;;;18.80;;
52126;SDS011;38120;53.176;6.614;2023-05-07T06:56:49;29.00;;;20.00;;
52126;SDS011;38120;53.176;6.614;2023-05-07T06:59:15;31.23;;;20.30;;
52126;SDS011;38120;53.176;6.614;2023-05-07T07:01:47;29.08;;;19.30;;
52126;SDS011;38120;53.176;6.614;2023-05-07T07:04:12;32.30;;;19.23;;
52126;SDS011;38120;53.176;6.614;2023-05-07T07:06:38;27.47;;;19.07;;
52126;SDS011;38120;53.176;6.614;2023-05-07T07:09:04;29.57;;;20.43;;
52126;SDS011;38120;53.176;6.614;2023-05-07T07:11:30;28.63;;;20.35;;
52126;SDS011;38120;53.176;6.614;2023-05-07T07:14:01;27.95;;;19.30;;
52126;SDS011;38120;53.176;6.614;2023-05-07T07:16:27;30.20;;;21.23;;
52126;SDS011;38120;53.176;6.614;2023-05-07T07:18:53;27.77;;;19.00;;
52126;SDS011;38120;53.176;6.614;2023-05-07T07:21:18;27.07;;;19.47;;
52126;SDS011;38120;53.176;6.614;2023-05-07T07:23:44;29.37;;;20.07;;
52126;SDS011;38120;53.176;6.614;2023-05-07T07:26:10;28.42;;;18.50;;
52126;SDS011;38120;53.176;6.614;2023-05-07T07:28:41;31.30;;;20.93;;
52126;SDS011;38120;53.176;6.614;2023-05-07T07:31:10;31.75;;;20.27;;
52126;SDS011;38120;53.176;6.614;2023-05-07T07:33:36;33.78;;;21.77;;
52126;SDS011;38120;53.176;6.614;2023-05-07T07:36:02;28.05;;;19.52;;
52126;SDS011;38120;53.176;6.614;2023-05-07T07:38:28;30.20;;;19.98;;
52126;SDS011;38120;53.176;6.614;2023-05-07T07:40:53;26.83;;;18.83;;
52126;SDS011;38120;53.176;6.614;2023-05-07T07:43:20;27.98;;;18.42;;
52126;SDS011;38120;53.176;6.614;2023-05-07T07:45:45;34.23;;;21.93;;
52126;SDS011;38120;53.176;6.614;2023-05-07T07:48:16;32.20;;;20.85;;
52126;SDS011;38120;53.176;6.614;2023-05-07T07:50:42;31.13;;;19.88;;
52126;SDS011;38120;53.176;6.614;2023-05-07T07:53:08;27.83;;;19.27;;
52126;SDS011;38120;53.176;6.614;2023-05-07T07:55:37;27.45;;;18.42;;
52126;SDS011;38120;53.176;6.614;2023-05-07T07:58:04;30.92;;;20.25;;
52126;SDS011;38120;53.176;6.614;2023-05-07T08:00:30;30.25;;;19.98;;
52126;SDS011;38120;53.176;6.614;2023-05-07T08:02:55;29.57;;;19.47;;
52126;SDS011;38120;53.176;6.614;2023-05-07T08:05:24;28.95;;;19.77;;
52126;SDS011;38120;53.176;6.614;2023-05-07T08:07:50;29.33;;;18.67;;
52126;SDS011;38120;53.176;6.614;2023-05-07T08:10:18;29.60;;;19.70;;
52126;SDS011;38120;53.176;6.614;2023-05-07T08:12:50;32.92;;;20.52;;
52126;SDS011;38120;53.176;6.614;2023-05-07T08:15:16;26.30;;;18.33;;
52126;SDS011;38120;53.176;6.614;2023-05-07T08:17:42;28.15;;;20.30;;
52126;SDS011;38120;53.176;6.614;2023-05-07T08:20:08;28.85;;;19.08;;
52126;SDS011;38120;53.176;6.614;2023-05-07T08:22:35;29.05;;;19.15;;
52126;SDS011;38120;53.176;6.614;2023-05-07T08:25:01;28.20;;;18.67;;
52126;SDS011;38120;53.176;6.614;2023-05-07T08:27:35;30.08;;;19.27;;
52126;SDS011;38120;53.176;6.614;2023-05-07T08:30:01;30.67;;;18.53;;
52126;SDS011;38120;53.176;6.614;2023-05-07T08:32:37;26.20;;;18.02;;
52126;SDS011;38120;53.176;6.614;2023-05-07T08:35:02;29.42;;;19.13;;
52126;SDS011;38120;53.176;6.614;2023-05-07T08:37:28;31.95;;;18.90;;
52126;SDS011;38120;53.176;6.614;2023-05-07T08:39:54;29.67;;;19.70;;
52126;SDS011;38120;53.176;6.614;2023-05-07T08:42:20;31.27;;;19.77;;
52126;SDS011;38120;53.176;6.614;2023-05-07T08:44:50;30.95;;;19.98;;
52126;SDS011;38120;53.176;6.614;2023-05-07T08:47:20;29.20;;;19.25;;
52126;SDS011;38120;53.176;6.614;2023-05-07T08:49:48;29.20;;;19.77;;
52126;SDS011;38120;53.176;6.614;2023-05-07T08:54:40;28.08;;;17.58;;
52126;SDS011;38120;53.176;6.614;2023-05-07T08:57:06;26.80;;;17.65;;
52126;SDS011;38120;53.176;6.614;2023-05-07T08:59:32;30.63;;;20.13;;
52126;SDS011;38120;53.176;6.614;2023-05-07T09:01:57;24.07;;;16.57;;
52126;SDS011;38120;53.176;6.614;2023-05-07T09:04:23;27.88;;;18.80;;
52126;SDS011;38120;53.176;6.614;2023-05-07T09:06:49;27.15;;;18.20;;
52126;SDS011;38120;53.176;6.614;2023-05-07T09:09:16;27.17;;;19.05;;
52126;SDS011;38120;53.176;6.614;2023-05-07T09:11:43;27.02;;;18.92;;
52126;SDS011;38120;53.176;6.614;2023-05-07T09:14:21;28.27;;;17.98;;
52126;SDS011;38120;53.176;6.614;2023-05-07T09:16:47;27.50;;;18.83;;
52126;SDS011;38120;53.176;6.614;2023-05-07T09:19:25;26.70;;;18.73;;
52126;SDS011;38120;53.176;6.614;2023-05-07T09:22:01;26.75;;;18.27;;
52126;SDS011;38120;53.176;6.614;2023-05-07T09:24:29;28.17;;;18.52;;
52126;SDS011;38120;53.176;6.614;2023-05-07T09:26:59;27.20;;;18.00;;
52126;SDS011;38120;53.176;6.614;2023-05-07T09:31:54;29.77;;;18.95;;
52126;SDS011;38120;53.176;6.614;2023-05-07T09:34:20;28.42;;;19.05;;
52126;SDS011;38120;53.176;6.614;2023-05-07T09:36:46;27.77;;;18.80;;
52126;SDS011;38120;53.176;6.614;2023-05-07T09:39:18;26.85;;;17.92;;
52126;SDS011;38120;53.176;6.614;2023-05-07T09:41:45;24.88;;;17.90;;
52126;SDS011;38120;53.176;6.614;2023-05-07T09:44:22;29.52;;;18.80;;
52126;SDS011;38120;53.176;6.614;2023-05-07T09:46:51;29.95;;;19.27;;
52126;SDS011;38120;53.176;6.614;2023-05-07T09:49:22;28.30;;;18.13;;
52126;SDS011;38120;53.176;6.614;2023-05-07T09:51:50;25.67;;;17.73;;
52126;SDS011;38120;53.176;6.614;2023-05-07T09:54:17;27.10;;;18.05;;
52126;SDS011;38120;53.176;6.614;2023-05-07T09:56:48;27.13;;;17.52;;
52126;SDS011;38120;53.176;6.614;2023-05-07T09:59:23;25.35;;;17.80;;
52126;SDS011;38120;53.176;6.614;2023-05-07T10:01:50;24.83;;;16.52;;
52126;SDS011;38120;53.176;6.614;2023-05-07T10:04:17;24.63;;;17.52;;
52126;SDS011;38120;53.176;6.614;2023-05-07T10:06:45;32.80;;;18.48;;
52126;SDS011;38120;53.176;6.614;2023-05-07T10:09:12;26.27;;;17.83;;
52126;SDS011;38120;53.176;6.614;2023-05-07T10:11:38;25.10;;;17.85;;
52126;SDS011;38120;53.176;6.614;2023-05-07T10:14:05;21.50;;;15.18;;
52126;SDS011;38120;53.176;6.614;2023-05-07T10:16:32;25.15;;;17.77;;
52126;SDS011;38120;53.176;6.614;2023-05-07T10:19:04;26.77;;;17.48;;
52126;SDS011;38120;53.176;6.614;2023-05-07T10:21:33;22.48;;;16.17;;
52126;SDS011;38120;53.176;6.614;2023-05-07T10:24:11;29.45;;;18.27;;
52126;SDS011;38120;53.176;6.614;2023-05-07T10:26:42;23.17;;;16.63;;
52126;SDS011;38120;53.176;6.614;2023-05-07T10:29:12;24.85;;;17.65;;
52126;SDS011;38120;53.176;6.614;2023-05-07T10:34:23;26.55;;;17.42;;
52126;SDS011;38120;53.176;6.614;2023-05-07T10:36:52;22.60;;;16.55;;
52126;SDS011;38120;53.176;6.614;2023-05-07T10:39:20;25.83;;;16.20;;
52126;SDS011;38120;53.176;6.614;2023-05-07T10:41:47;25.80;;;17.15;;
52126;SDS011;38120;53.176;6.614;2023-05-07T10:44:24;25.73;;;16.23;;
52126;SDS011;38120;53.176;6.614;2023-05-07T10:47:03;24.40;;;16.33;;
52126;SDS011;38120;53.176;6.614;2023-05-07T10:49:30;22.08;;;16.92;;
52126;SDS011;38120;53.176;6.614;2023-05-07T10:57:42;19.88;;;14.38;;
52126;SDS011;38120;53.176;6.614;2023-05-07T11:05:24;21.70;;;14.57;;
52126;SDS011;38120;53.176;6.614;2023-05-07T11:07:59;21.13;;;15.20;;
52126;SDS011;38120;53.176;6.614;2023-05-07T11:11:08;20.85;;;14.95;;
52126;SDS011;38120;53.176;6.614;2023-05-07T11:18:53;21.58;;;14.70;;
52126;SDS011;38120;53.176;6.614;2023-05-07T11:21:39;19.17;;;15.10;;
52126;SDS011;38120;53.176;6.614;2023-05-07T11:24:10;22.33;;;15.37;;
52126;SDS011;38120;53.176;6.614;2023-05-07T11:26:48;23.17;;;14.80;;
52126;SDS011;38120;53.176;6.614;2023-05-07T11:29:15;20.65;;;14.60;;
52126;SDS011;38120;53.176;6.614;2023-05-07T11:31:48;18.92;;;14.00;;
52126;SDS011;38120;53.176;6.614;2023-05-07T11:34:15;18.83;;;14.18;;
52126;SDS011;38120;53.176;6.614;2023-05-07T11:36:46;18.25;;;14.80;;
52126;SDS011;38120;53.176;6.614;2023-05-07T11:44:57;18.02;;;13.00;;
52126;SDS011;38120;53.176;6.614;2023-05-07T11:47:24;18.30;;;13.85;;
52126;SDS011;38120;53.176;6.614;2023-05-07T11:49:53;18.23;;;13.85;;
52126;SDS011;38120;53.176;6.614;2023-05-07T11:52:20;18.73;;;13.55;;
52126;SDS011;38120;53.176;6.614;2023-05-07T11:54:56;16.92;;;13.00;;
52126;SDS011;38120;53.176;6.614;2023-05-07T11:57:24;19.27;;;14.75;;
52126;SDS011;38120;53.176;6.614;2023-05-07T11:59:53;17.83;;;13.80;;
52126;SDS011;38120;53.176;6.614;2023-05-07T12:02:19;17.55;;;13.43;;
52126;SDS011;38120;53.176;6.614;2023-05-07T12:04:45;17.75;;;13.70;;
52126;SDS011;38120;53.176;6.614;2023-05-07T12:07:11;20.48;;;13.05;;
52126;SDS011;38120;53.176;6.614;2023-05-07T12:09:43;18.00;;;13.30;;
52126;SDS011;38120;53.176;6.614;2023-05-07T12:12:10;19.23;;;13.93;;
52126;SDS011;38120;53.176;6.614;2023-05-07T12:17:10;19.80;;;13.27;;
52126;SDS011;38120;53.176;6.614;2023-05-07T12:19:39;17.30;;;13.55;;
52126;SDS011;38120;53.176;6.614;2023-05-07T12:22:09;17.98;;;12.73;;
52126;SDS011;38120;53.176;6.614;2023-05-07T12:24:48;17.60;;;13.18;;
52126;SDS011;38120;53.176;6.614;2023-05-07T12:27:21;20.05;;;13.80;;
52126;SDS011;38120;53.176;6.614;2023-05-07T12:29:47;17.48;;;13.80;;
52126;SDS011;38120;53.176;6.614;2023-05-07T12:34:40;18.20;;;13.25;;
52126;SDS011;38120;53.176;6.614;2023-05-07T12:37:05;17.63;;;12.88;;
52126;SDS011;38120;53.176;6.614;2023-05-07T12:39:31;15.65;;;13.27;;
52126;SDS011;38120;53.176;6.614;2023-05-07T12:41:58;18.33;;;14.10;;
52126;SDS011;38120;53.176;6.614;2023-05-07T12:44:34;18.23;;;13.57;;
52126;SDS011;38120;53.176;6.614;2023-05-07T12:47:03;18.73;;;14.67;;
52126;SDS011;38120;53.176;6.614;2023-05-07T12:49:29;17.98;;;13.95;;
52126;SDS011;38120;53.176;6.614;2023-05-07T12:51:55;17.58;;;13.80;;
52126;SDS011;38120;53.176;6.614;2023-05-07T12:54:27;17.50;;;13.20;;
52126;SDS011;38120;53.176;6.614;2023-05-07T12:59:36;15.48;;;13.38;;
52126;SDS011;38120;53.176;6.614;2023-05-07T13:02:03;17.45;;;13.98;;
52126;SDS011;38120;53.176;6.614;2023-05-07T13:04:30;18.13;;;14.20;;
52126;SDS011;38120;53.176;6.614;2023-05-07T13:06:56;17.05;;;13.55;;
52126;SDS011;38120;53.176;6.614;2023-05-07T13:09:21;15.75;;;12.63;;
52126;SDS011;38120;53.176;6.614;2023-05-07T13:11:47;17.70;;;13.68;;
52126;SDS011;38120;53.176;6.614;2023-05-07T13:14:13;16.02;;;13.38;;
52126;SDS011;38120;53.176;6.614;2023-05-07T13:16:38;16.02;;;12.77;;
52126;SDS011;38120;53.176;6.614;2023-05-07T13:19:04;15.38;;;11.27;;
52126;SDS011;38120;53.176;6.614;2023-05-07T13:21:30;18.42;;;13.38;;
52126;SDS011;38120;53.176;6.614;2023-05-07T13:23:58;16.92;;;13.60;;
52126;SDS011;38120;53.176;6.614;2023-05-07T13:26:24;15.93;;;12.45;;
52126;SDS011;38120;53.176;6.614;2023-05-07T13:28:51;15.10;;;12.45;;
52126;SDS011;38120;53.176;6.614;2023-05-07T13:31:20;17.70;;;12.55;;
52126;SDS011;38120;53.176;6.614;2023-05-07T13:33:46;16.40;;;11.90;;
52126;SDS011;38120;53.176;6.614;2023-05-07T13:36:12;16.10;;;11.68;;
52126;SDS011;38120;53.176;6.614;2023-05-07T13:38:38;14.52;;;11.13;;
52126;SDS011;38120;53.176;6.614;2023-05-07T13:41:05;15.63;;;12.25;;
52126;SDS011;38120;53.176;6.614;2023-05-07T13:43:30;15.82;;;12.93;;
52126;SDS011;38120;53.176;6.614;2023-05-07T13:45:58;17.45;;;13.60;;
52126;SDS011;38120;53.176;6.614;2023-05-07T13:48:24;15.45;;;12.07;;
52126;SDS011;38120;53.176;6.614;2023-05-07T13:50:50;15.73;;;11.35;;
52126;SDS011;38120;53.176;6.614;2023-05-07T13:55:43;15.30;;;11.80;;
52126;SDS011;38120;53.176;6.614;2023-05-07T13:58:10;14.07;;;12.00;;
52126;SDS011;38120;53.176;6.614;2023-05-07T14:00:35;15.02;;;12.55;;
52126;SDS011;38120;53.176;6.614;2023-05-07T14:05:28;19.65;;;11.60;;
52126;SDS011;38120;53.176;6.614;2023-05-07T14:07:54;13.40;;;10.82;;
52126;SDS011;38120;53.176;6.614;2023-05-07T14:10:21;12.98;;;11.57;;
52126;SDS011;38120;53.176;6.614;2023-05-07T14:12:47;13.52;;;11.43;;
52126;SDS011;38120;53.176;6.614;2023-05-07T14:15:13;14.07;;;11.25;;
52126;SDS011;38120;53.176;6.614;2023-05-07T14:17:39;13.48;;;12.05;;
52126;SDS011;38120;53.176;6.614;2023-05-07T14:20:05;13.43;;;11.15;;
52126;SDS011;38120;53.176;6.614;2023-05-07T14:22:32;15.40;;;12.82;;
52126;SDS011;38120;53.176;6.614;2023-05-07T14:24:57;16.38;;;11.60;;
52126;SDS011;38120;53.176;6.614;2023-05-07T14:27:23;16.08;;;11.52;;
52126;SDS011;38120;53.176;6.614;2023-05-07T14:29:49;12.40;;;10.70;;
52126;SDS011;38120;53.176;6.614;2023-05-07T14:32:19;14.90;;;11.98;;
52126;SDS011;38120;53.176;6.614;2023-05-07T14:34:46;15.07;;;11.77;;
52126;SDS011;38120;53.176;6.614;2023-05-07T14:37:12;14.30;;;11.63;;
52126;SDS011;38120;53.176;6.614;2023-05-07T14:39:38;12.23;;;10.65;;
52126;SDS011;38120;53.176;6.614;2023-05-07T14:42:04;14.43;;;11.60;;
52126;SDS011;38120;53.176;6.614;2023-05-07T14:46:56;16.80;;;11.75;;
52126;SDS011;38120;53.176;6.614;2023-05-07T14:49:22;13.40;;;11.90;;
52126;SDS011;38120;53.176;6.614;2023-05-07T14:51:51;12.63;;;11.07;;
52126;SDS011;38120;53.176;6.614;2023-05-07T14:54:18;14.15;;;11.52;;
52126;SDS011;38120;53.176;6.614;2023-05-07T14:56:44;13.63;;;11.70;;
52126;SDS011;38120;53.176;6.614;2023-05-07T14:59:11;13.70;;;11.38;;
52126;SDS011;38120;53.176;6.614;2023-05-07T15:04:05;13.38;;;11.45;;
52126;SDS011;38120;53.176;6.614;2023-05-07T15:06:31;13.65;;;11.13;;
52126;SDS011;38120;53.176;6.614;2023-05-07T15:08:58;16.23;;;11.65;;
52126;SDS011;38120;53.176;6.614;2023-05-07T15:11:24;12.35;;;10.68;;
52126;SDS011;38120;53.176;6.614;2023-05-07T15:13:50;14.40;;;11.55;;